sensor_id;sensor_type;location;lat;lon;timestamp;pressure;altitude;pressure_sealevel;temperature;humidity
63088;BME280;49173;43.164;27.786;2023-04-30T00:01:59;100209.25;;;10.07;59.31
63088;BME280;49173;43.164;27.786;2023-04-30T00:04:25;100209.34;;;10.05;59.17
63088;BME280;49173;43.164;27.786;2023-04-30T00:06:52;100208.66;;;10.02;59.31
63088;BME280;49173;43.164;27.786;2023-04-30T00:09:18;100207.00;;;9.99;59.41
63088;BME280;49173;43.164;27.786;2023-04-30T00:11:44;100209.69;;;9.99;59.51
63088;BME280;49173;43.164;27.786;2023-04-30T00:14:10;100207.97;;;9.98;59.38
63088;BME280;49173;43.164;27.786;2023-04-30T00:16:36;100212.63;;;9.95;59.04
63088;BME280;49173;43.164;27.786;2023-04-30T00:19:01;100211.06;;;9.90;59.68
63088;BME280;49173;43.164;27.786;2023-04-30T00:21:27;100208.47;;;9.89;60.28
63088;BME280;49173;43.164;27.786;2023-04-30T00:23:53;100209.44;;;9.88;60.01
63088;BME280;49173;43.164;27.786;2023-04-30T00:26:19;100212.00;;;9.89;60.20
63088;BME280;49173;43.164;27.786;2023-04-30T00:28:45;100208.47;;;9.89;60.61
63088;BME280;49173;43.164;27.786;2023-04-30T00:31:11;100204.13;;;9.86;61.23
63088;BME280;49173;43.164;27.786;2023-04-30T00:33:37;100205.94;;;9.86;60.34
63088;BME280;49173;43.164;27.786;2023-04-30T00:36:03;100204.31;;;9.83;61.30
63088;BME280;49173;43.164;27.786;2023-04-30T00:38:29;100199.19;;;9.79;61.41
63088;BME280;49173;43.164;27.786;2023-04-30T00:40:54;100199.47;;;9.74;61.83
63088;BME280;49173;43.164;27.786;2023-04-30T00:43:20;100194.19;;;9.73;61.91
63088;BME280;49173;43.164;27.786;2023-04-30T00:45:46;100193.47;;;9.69;61.77
63088;BME280;49173;43.164;27.786;2023-04-30T00:48:12;100193.56;;;9.68;61.29
63088;BME280;49173;43.164;27.786;2023-04-30T00:50:38;100202.56;;;9.67;61.90
63088;BME280;49173;43.164;27.786;2023-04-30T00:53:06;100197.34;;;9.63;62.22
63088;BME280;49173;43.164;27.786;2023-04-30T00:55:32;100202.78;;;9.62;61.76
63088;BME280;49173;43.164;27.786;2023-04-30T00:57:58;100201.16;;;9.59;62.24
63088;BME280;49173;43.164;27.786;2023-04-30T01:00:26;100198.69;;;9.55;62.84
63088;BME280;49173;43.164;27.786;2023-04-30T01:02:52;100200.75;;;9.50;62.16
63088;BME280;49173;43.164;27.786;2023-04-30T01:05:18;100194.72;;;9.46;62.56
63088;BME280;49173;43.164;27.786;2023-04-30T01:07:44;100200.22;;;9.43;62.17
63088;BME280;49173;43.164;27.786;2023-04-30T01:10:14;100199.59;;;9.38;62.20
63088;BME280;49173;43.164;27.786;2023-04-30T01:13:09;100206.84;;;9.36;62.38
63088;BME280;49173;43.164;27.786;2023-04-30T01:15:45;100199.75;;;9.35;61.82
63088;BME280;49173;43.164;27.786;2023-04-30T01:20:55;100202.75;;;9.29;62.44
63088;BME280;49173;43.164;27.786;2023-04-30T01:24:00;100192.91;;;9.29;62.05
63088;BME280;49173;43.164;27.786;2023-04-30T01:29:29;100195.66;;;9.28;61.69
63088;BME280;49173;43.164;27.786;2023-04-30T01:31:57;100189.44;;;9.27;61.43
63088;BME280;49173;43.164;27.786;2023-04-30T01:34:23;100196.69;;;9.25;61.88
63088;BME280;49173;43.164;27.786;2023-04-30T01:43:09;100191.13;;;9.13;62.22
63088;BME280;49173;43.164;27.786;2023-04-30T01:46:04;100188.63;;;9.10;62.16
63088;BME280;49173;43.164;27.786;2023-04-30T01:48:48;100189.38;;;9.12;62.47
63088;BME280;49173;43.164;27.786;2023-04-30T01:51:29;100187.66;;;9.11;61.95
63088;BME280;49173;43.164;27.786;2023-04-30T01:53:57;100194.03;;;9.08;62.24
63088;BME280;49173;43.164;27.786;2023-04-30T01:56:36;100192.94;;;9.12;62.47
63088;BME280;49173;43.164;27.786;2023-04-30T01:59:04;100188.44;;;9.13;62.17
63088;BME280;49173;43.164;27.786;2023-04-30T02:01:31;100187.50;;;9.14;62.50
63088;BME280;49173;43.164;27.786;2023-04-30T02:03:57;100185.66;;;9.14;62.02
63088;BME280;49173;43.164;27.786;2023-04-30T02:06:24;100181.44;;;9.10;62.41
63088;BME280;49173;43.164;27.786;2023-04-30T02:08:55;100195.06;;;9.05;62.43
63088;BME280;49173;43.164;27.786;2023-04-30T02:11:27;100190.66;;;9.04;63.09
63088;BME280;49173;43.164;27.786;2023-04-30T02:13:53;100182.53;;;9.06;63.25
63088;BME280;49173;43.164;27.786;2023-04-30T02:16:19;100182.63;;;9.04;63.14
63088;BME280;49173;43.164;27.786;2023-04-30T02:18:46;100184.53;;;9.02;63.34
63088;BME280;49173;43.164;27.786;2023-04-30T02:21:12;100177.41;;;9.01;63.02
63088;BME280;49173;43.164;27.786;2023-04-30T02:23:39;100177.41;;;9.01;63.03
63088;BME280;49173;43.164;27.786;2023-04-30T02:26:05;100179.31;;;8.99;62.95
63088;BME280;49173;43.164;27.786;2023-04-30T02:28:30;100169.38;;;9.01;63.03
63088;BME280;49173;43.164;27.786;2023-04-30T02:30:56;100172.13;;;9.00;63.65
63088;BME280;49173;43.164;27.786;2023-04-30T02:33:22;100171.19;;;9.01;63.63
63088;BME280;49173;43.164;27.786;2023-04-30T02:35:48;100180.25;;;8.98;63.78
63088;BME280;49173;43.164;27.786;2023-04-30T02:38:14;100172.31;;;8.97;63.81
63088;BME280;49173;43.164;27.786;2023-04-30T02:40:40;100172.44;;;8.94;64.17
63088;BME280;49173;43.164;27.786;2023-04-30T02:43:07;100177.88;;;8.92;64.23
63088;BME280;49173;43.164;27.786;2023-04-30T02:45:33;100183.31;;;8.91;64.00
63088;BME280;49173;43.164;27.786;2023-04-30T02:48:01;100181.69;;;8.88;63.52
63088;BME280;49173;43.164;27.786;2023-04-30T02:50:27;100179.91;;;8.87;63.23
63088;BME280;49173;43.164;27.786;2023-04-30T02:52:52;100180.78;;;8.88;63.25
63088;BME280;49173;43.164;27.786;2023-04-30T02:55:20;100179.91;;;8.87;63.80
63088;BME280;49173;43.164;27.786;2023-04-30T02:57:46;100180.88;;;8.86;63.93
63088;BME280;49173;43.164;27.786;2023-04-30T03:00:12;100174.66;;;8.86;63.89
63088;BME280;49173;43.164;27.786;2023-04-30T03:02:38;100182.69;;;8.86;63.98
63088;BME280;49173;43.164;27.786;2023-04-30T03:05:04;100170.25;;;8.85;63.64
63088;BME280;49173;43.164;27.786;2023-04-30T03:07:30;100179.06;;;8.87;64.01
63088;BME280;49173;43.164;27.786;2023-04-30T03:09:56;100173.72;;;8.87;63.78
63088;BME280;49173;43.164;27.786;2023-04-30T03:12:22;100175.50;;;8.86;64.16
63088;BME280;49173;43.164;27.786;2023-04-30T03:14:47;100169.56;;;8.81;64.39
63088;BME280;49173;43.164;27.786;2023-04-30T03:17:13;100168.53;;;8.84;64.29
63088;BME280;49173;43.164;27.786;2023-04-30T03:19:39;100166.72;;;8.84;64.01
63088;BME280;49173;43.164;27.786;2023-04-30T03:22:05;100176.38;;;8.87;64.46
63088;BME280;49173;43.164;27.786;2023-04-30T03:24:30;100174.44;;;8.90;64.59
63088;BME280;49173;43.164;27.786;2023-04-30T03:26:56;100171.59;;;8.93;64.45
63088;BME280;49173;43.164;27.786;2023-04-30T03:29:22;100172.41;;;8.95;64.38
63088;BME280;49173;43.164;27.786;2023-04-30T03:31:49;100173.41;;;8.93;65.19
63088;BME280;49173;43.164;27.786;2023-04-30T03:34:14;100167.97;;;8.94;65.53
63088;BME280;49173;43.164;27.786;2023-04-30T03:36:40;100171.19;;;9.01;65.15
63088;BME280;49173;43.164;27.786;2023-04-30T03:39:06;100185.03;;;9.09;65.79
63088;BME280;49173;43.164;27.786;2023-04-30T03:41:34;100182.22;;;9.12;65.29
63088;BME280;49173;43.164;27.786;2023-04-30T03:44:00;100185.59;;;9.16;65.04
63088;BME280;49173;43.164;27.786;2023-04-30T03:46:26;100186.22;;;9.21;64.78
63088;BME280;49173;43.164;27.786;2023-04-30T03:48:52;100184.25;;;9.24;65.21
63088;BME280;49173;43.164;27.786;2023-04-30T03:51:22;100194.41;;;9.35;65.33
63088;BME280;49173;43.164;27.786;2023-04-30T03:53:47;100187.34;;;9.50;64.67
63088;BME280;49173;43.164;27.786;2023-04-30T03:56:13;100196.38;;;9.64;64.61
63088;BME280;49173;43.164;27.786;2023-04-30T03:58:39;100196.03;;;9.88;64.21
63088;BME280;49173;43.164;27.786;2023-04-30T04:01:05;100198.31;;;10.27;62.34
63088;BME280;49173;43.164;27.786;2023-04-30T04:03:33;100199.94;;;10.61;61.57
63088;BME280;49173;43.164;27.786;2023-04-30T04:05:59;100197.38;;;10.90;60.46
63088;BME280;49173;43.164;27.786;2023-04-30T04:08:25;100207.13;;;11.37;60.06
63088;BME280;49173;43.164;27.786;2023-04-30T04:10:50;100195.72;;;12.04;58.66
63088;BME280;49173;43.164;27.786;2023-04-30T04:13:16;100203.09;;;12.71;56.70
63088;BME280;49173;43.164;27.786;2023-04-30T04:15:42;100185.53;;;13.17;54.71
63088;BME280;49173;43.164;27.786;2023-04-30T04:18:07;100207.72;;;13.48;53.94
63088;BME280;49173;43.164;27.786;2023-04-30T04:20:33;100200.38;;;13.63;53.50
63088;BME280;49173;43.164;27.786;2023-04-30T04:22:59;100198.88;;;13.71;52.51
63088;BME280;49173;43.164;27.786;2023-04-30T04:25:25;100204.59;;;13.80;53.29
63088;BME280;49173;43.164;27.786;2023-04-30T04:27:51;100206.72;;;13.87;52.82
63088;BME280;49173;43.164;27.786;2023-04-30T04:30:18;100205.44;;;13.93;53.06
63088;BME280;49173;43.164;27.786;2023-04-30T04:32:44;100209.09;;;14.05;52.44
63088;BME280;49173;43.164;27.786;2023-04-30T04:35:15;100211.13;;;14.14;51.75
63088;BME280;49173;43.164;27.786;2023-04-30T04:37:42;100207.56;;;14.26;52.67
63088;BME280;49173;43.164;27.786;2023-04-30T04:40:08;100214.66;;;14.40;52.69
63088;BME280;49173;43.164;27.786;2023-04-30T04:42:35;100214.00;;;14.49;51.77
63088;BME280;49173;43.164;27.786;2023-04-30T04:45:04;100206.19;;;14.57;51.93
63088;BME280;49173;43.164;27.786;2023-04-30T04:47:30;100210.03;;;14.66;51.85
63088;BME280;49173;43.164;27.786;2023-04-30T04:49:57;100213.53;;;14.79;51.39
63088;BME280;49173;43.164;27.786;2023-04-30T04:52:23;100214.59;;;14.89;51.05
63088;BME280;49173;43.164;27.786;2023-04-30T04:54:48;100204.06;;;14.97;52.20
63088;BME280;49173;43.164;27.786;2023-04-30T04:57:15;100204.00;;;15.10;51.80
63088;BME280;49173;43.164;27.786;2023-04-30T04:59:40;100204.66;;;15.25;51.27
63088;BME280;49173;43.164;27.786;2023-04-30T05:02:06;100204.06;;;15.32;50.42
63088;BME280;49173;43.164;27.786;2023-04-30T05:04:32;100212.31;;;15.42;50.83
63088;BME280;49173;43.164;27.786;2023-04-30T05:06:58;100206.69;;;15.56;51.47
63088;BME280;49173;43.164;27.786;2023-04-30T05:09:24;100208.25;;;15.72;50.05
63088;BME280;49173;43.164;27.786;2023-04-30T05:11:49;100209.75;;;15.87;50.60
63088;BME280;49173;43.164;27.786;2023-04-30T05:14:15;100208.75;;;15.99;50.99
63088;BME280;49173;43.164;27.786;2023-04-30T05:16:41;100208.41;;;16.15;49.60
63088;BME280;49173;43.164;27.786;2023-04-30T05:19:07;100213.56;;;16.29;49.30
63088;BME280;49173;43.164;27.786;2023-04-30T05:21:34;100211.94;;;16.38;48.19
63088;BME280;49173;43.164;27.786;2023-04-30T05:24:01;100217.00;;;16.42;48.19
63088;BME280;49173;43.164;27.786;2023-04-30T05:26:26;100218.72;;;16.43;48.88
63088;BME280;49173;43.164;27.786;2023-04-30T05:28:52;100224.00;;;16.45;48.11
63088;BME280;49173;43.164;27.786;2023-04-30T05:31:18;100222.38;;;16.54;48.09
63088;BME280;49173;43.164;27.786;2023-04-30T05:33:44;100218.66;;;16.66;48.29
63088;BME280;49173;43.164;27.786;2023-04-30T05:36:10;100216.47;;;16.71;48.31
63088;BME280;49173;43.164;27.786;2023-04-30T05:38:36;100215.56;;;16.82;47.66
63088;BME280;49173;43.164;27.786;2023-04-30T05:41:01;100212.63;;;16.85;47.49
63088;BME280;49173;43.164;27.786;2023-04-30T05:43:27;100210.28;;;16.80;47.23
63088;BME280;49173;43.164;27.786;2023-04-30T05:45:53;100215.56;;;16.82;48.29
63088;BME280;49173;43.164;27.786;2023-04-30T05:48:18;100220.84;;;16.94;47.12
63088;BME280;49173;43.164;27.786;2023-04-30T05:50:45;100210.19;;;17.02;45.78
63088;BME280;49173;43.164;27.786;2023-04-30T05:53:12;100208.44;;;17.13;46.20
63088;BME280;49173;43.164;27.786;2023-04-30T05:55:38;100209.00;;;17.27;46.04
63088;BME280;49173;43.164;27.786;2023-04-30T05:58:04;100211.38;;;17.42;44.11
63088;BME280;49173;43.164;27.786;2023-04-30T06:00:30;100212.91;;;17.55;44.67
63088;BME280;49173;43.164;27.786;2023-04-30T06:02:56;100214.94;;;17.63;45.52
63088;BME280;49173;43.164;27.786;2023-04-30T06:05:22;100207.03;;;17.71;44.09
63088;BME280;49173;43.164;27.786;2023-04-30T06:07:48;100215.97;;;17.83;45.14
63088;BME280;49173;43.164;27.786;2023-04-30T06:10:14;100222.63;;;18.00;44.79
63088;BME280;49173;43.164;27.786;2023-04-30T06:12:40;100220.06;;;18.08;44.73
63088;BME280;49173;43.164;27.786;2023-04-30T06:15:06;100229.00;;;18.20;44.41
63088;BME280;49173;43.164;27.786;2023-04-30T06:17:32;100225.16;;;18.32;44.06
63088;BME280;49173;43.164;27.786;2023-04-30T06:19:58;100220.91;;;18.39;44.18
63088;BME280;49173;43.164;27.786;2023-04-30T06:22:34;100221.97;;;18.57;42.35
63088;BME280;49173;43.164;27.786;2023-04-30T06:25:03;100219.59;;;18.74;42.96
63088;BME280;49173;43.164;27.786;2023-04-30T06:27:30;100221.47;;;18.73;42.87
63088;BME280;49173;43.164;27.786;2023-04-30T06:29:57;100224.22;;;18.83;42.51
63088;BME280;49173;43.164;27.786;2023-04-30T06:32:26;100220.66;;;18.92;42.98
63088;BME280;49173;43.164;27.786;2023-04-30T06:34:53;100219.22;;;19.07;42.28
63088;BME280;49173;43.164;27.786;2023-04-30T06:37:21;100211.09;;;19.17;42.05
63088;BME280;49173;43.164;27.786;2023-04-30T06:39:48;100213.63;;;19.28;39.84
63088;BME280;49173;43.164;27.786;2023-04-30T06:42:16;100220.66;;;19.40;41.48
63088;BME280;49173;43.164;27.786;2023-04-30T06:44:42;100211.06;;;19.46;39.24
63088;BME280;49173;43.164;27.786;2023-04-30T06:47:13;100216.63;;;19.54;38.94
63088;BME280;49173;43.164;27.786;2023-04-30T06:49:39;100214.06;;;19.62;40.07
63088;BME280;49173;43.164;27.786;2023-04-30T06:52:07;100213.22;;;19.62;38.04
63088;BME280;49173;43.164;27.786;2023-04-30T06:54:33;100207.47;;;19.74;39.66
63088;BME280;49173;43.164;27.786;2023-04-30T06:57:01;100201.13;;;19.84;38.73
63088;BME280;49173;43.164;27.786;2023-04-30T06:59:29;100211.38;;;19.99;36.76
63088;BME280;49173;43.164;27.786;2023-04-30T07:01:58;100206.34;;;20.05;36.80
63088;BME280;49173;43.164;27.786;2023-04-30T07:04:25;100212.22;;;20.10;37.10
63088;BME280;49173;43.164;27.786;2023-04-30T07:06:55;100207.31;;;20.13;35.65
63088;BME280;49173;43.164;27.786;2023-04-30T07:09:25;100204.44;;;20.15;34.72
63088;BME280;49173;43.164;27.786;2023-04-30T07:11:52;100205.56;;;20.22;35.84
63088;BME280;49173;43.164;27.786;2023-04-30T07:14:18;100212.13;;;20.29;36.42
63088;BME280;49173;43.164;27.786;2023-04-30T07:16:50;100205.97;;;20.27;33.23
63088;BME280;49173;43.164;27.786;2023-04-30T07:19:19;100210.41;;;20.28;35.47
63088;BME280;49173;43.164;27.786;2023-04-30T07:21:45;100211.00;;;20.22;34.08
63088;BME280;49173;43.164;27.786;2023-04-30T07:24:14;100219.31;;;20.30;35.13
63088;BME280;49173;43.164;27.786;2023-04-30T07:26:42;100220.44;;;20.37;36.47
63088;BME280;49173;43.164;27.786;2023-04-30T07:29:10;100213.66;;;20.41;36.20
63088;BME280;49173;43.164;27.786;2023-04-30T07:31:37;100219.25;;;20.40;36.59
63088;BME280;49173;43.164;27.786;2023-04-30T07:34:03;100219.41;;;20.38;36.85
63088;BME280;49173;43.164;27.786;2023-04-30T07:36:31;100225.00;;;20.37;36.91
63088;BME280;49173;43.164;27.786;2023-04-30T07:38:59;100221.28;;;20.38;36.76
63088;BME280;49173;43.164;27.786;2023-04-30T07:41:28;100218.09;;;20.42;37.99
63088;BME280;49173;43.164;27.786;2023-04-30T07:43:57;100214.81;;;20.39;36.85
63088;BME280;49173;43.164;27.786;2023-04-30T07:46:28;100211.38;;;20.37;37.35
63088;BME280;49173;43.164;27.786;2023-04-30T07:48:54;100211.78;;;20.42;39.19
63088;BME280;49173;43.164;27.786;2023-04-30T07:51:23;100208.91;;;20.43;38.89
63088;BME280;49173;43.164;27.786;2023-04-30T07:53:49;100208.91;;;20.43;37.12
63088;BME280;49173;43.164;27.786;2023-04-30T07:56:19;100210.50;;;20.36;35.45
63088;BME280;49173;43.164;27.786;2023-04-30T07:58:46;100207.78;;;20.09;34.24
63088;BME280;49173;43.164;27.786;2023-04-30T08:01:16;100213.09;;;20.00;35.81
63088;BME280;49173;43.164;27.786;2023-04-30T08:03:43;100207.22;;;20.05;37.43
63088;BME280;49173;43.164;27.786;2023-04-30T08:06:10;100202.66;;;19.96;34.98
63088;BME280;49173;43.164;27.786;2023-04-30T08:08:37;100204.38;;;19.87;37.70
63088;BME280;49173;43.164;27.786;2023-04-30T08:11:09;100213.13;;;19.91;37.88
63088;BME280;49173;43.164;27.786;2023-04-30T08:13:37;100212.44;;;19.79;35.77
63088;BME280;49173;43.164;27.786;2023-04-30T08:16:04;100209.03;;;19.77;35.92
63088;BME280;49173;43.164;27.786;2023-04-30T08:18:33;100204.28;;;19.79;37.95
63088;BME280;49173;43.164;27.786;2023-04-30T08:21:02;100207.72;;;19.81;38.01
63088;BME280;49173;43.164;27.786;2023-04-30T08:23:28;100206.00;;;19.80;38.47
63088;BME280;49173;43.164;27.786;2023-04-30T08:25:55;100200.25;;;19.83;39.25
63088;BME280;49173;43.164;27.786;2023-04-30T08:28:22;100199.41;;;19.83;39.04
63088;BME280;49173;43.164;27.786;2023-04-30T08:30:48;100201.28;;;19.82;39.06
63088;BME280;49173;43.164;27.786;2023-04-30T08:33:16;100192.09;;;19.83;39.13
63088;BME280;49173;43.164;27.786;2023-04-30T08:35:42;100199.94;;;19.86;39.05
63088;BME280;49173;43.164;27.786;2023-04-30T08:38:10;100193.81;;;19.84;38.82
63088;BME280;49173;43.164;27.786;2023-04-30T08:40:36;100188.03;;;19.87;40.23
63088;BME280;49173;43.164;27.786;2023-04-30T08:43:07;100195.38;;;19.87;39.38
63088;BME280;49173;43.164;27.786;2023-04-30T08:45:36;100187.50;;;19.84;38.46
63088;BME280;49173;43.164;27.786;2023-04-30T08:48:04;100193.66;;;19.86;38.81
63088;BME280;49173;43.164;27.786;2023-04-30T08:50:32;100188.47;;;19.92;39.57
63088;BME280;49173;43.164;27.786;2023-04-30T08:53:00;100192.22;;;19.91;38.73
63088;BME280;49173;43.164;27.786;2023-04-30T08:55:29;100184.72;;;19.93;39.83
63088;BME280;49173;43.164;27.786;2023-04-30T08:57:55;100184.88;;;19.92;40.42
63088;BME280;49173;43.164;27.786;2023-04-30T09:00:36;100188.88;;;19.97;39.56
63088;BME280;49173;43.164;27.786;2023-04-30T09:03:03;100184.19;;;19.90;37.08
63088;BME280;49173;43.164;27.786;2023-04-30T09:05:29;100193.09;;;19.82;38.64
63088;BME280;49173;43.164;27.786;2023-04-30T09:07:56;100191.09;;;19.84;40.22
63088;BME280;49173;43.164;27.786;2023-04-30T09:10:26;100186.66;;;19.83;37.27
63088;BME280;49173;43.164;27.786;2023-04-30T09:13:03;100182.50;;;19.79;39.01
63088;BME280;49173;43.164;27.786;2023-04-30T09:15:30;100174.91;;;19.83;40.27
63088;BME280;49173;43.164;27.786;2023-04-30T09:18:10;100173.84;;;19.93;40.40
63088;BME280;49173;43.164;27.786;2023-04-30T09:20:52;100179.56;;;20.00;40.21
63088;BME280;49173;43.164;27.786;2023-04-30T09:23:20;100173.56;;;19.96;36.77
63088;BME280;49173;43.164;27.786;2023-04-30T09:25:48;100167.00;;;19.89;36.53
63088;BME280;49173;43.164;27.786;2023-04-30T09:28:18;100169.28;;;19.84;39.38
63088;BME280;49173;43.164;27.786;2023-04-30T09:30:48;100157.81;;;19.90;38.84
63088;BME280;49173;43.164;27.786;2023-04-30T09:33:18;100167.16;;;19.88;40.01
63088;BME280;49173;43.164;27.786;2023-04-30T09:35:45;100165.94;;;20.00;40.72
63088;BME280;49173;43.164;27.786;2023-04-30T09:38:31;100151.56;;;20.08;39.46
63088;BME280;49173;43.164;27.786;2023-04-30T09:40:59;100151.72;;;20.06;37.90
63088;BME280;49173;43.164;27.786;2023-04-30T09:43:30;100143.09;;;20.11;40.25
63088;BME280;49173;43.164;27.786;2023-04-30T09:45:58;100147.22;;;20.15;39.26
63088;BME280;49173;43.164;27.786;2023-04-30T09:48:26;100143.97;;;20.29;40.38
63088;BME280;49173;43.164;27.786;2023-04-30T09:50:53;100139.97;;;20.33;39.00
63088;BME280;49173;43.164;27.786;2023-04-30T09:53:21;100147.81;;;20.36;39.64
63088;BME280;49173;43.164;27.786;2023-04-30T09:55:50;100145.94;;;20.46;39.15
63088;BME280;49173;43.164;27.786;2023-04-30T09:58:27;100142.13;;;20.57;39.73
63088;BME280;49173;43.164;27.786;2023-04-30T10:00:57;100149.06;;;20.69;38.68
63088;BME280;49173;43.164;27.786;2023-04-30T10:03:27;100137.09;;;20.80;39.96
63088;BME280;49173;43.164;27.786;2023-04-30T10:05:57;100142.22;;;20.83;40.40
63088;BME280;49173;43.164;27.786;2023-04-30T10:08:30;100144.00;;;20.92;38.62
63088;BME280;49173;43.164;27.786;2023-04-30T10:11:02;100139.00;;;21.05;39.28
63088;BME280;49173;43.164;27.786;2023-04-30T10:13:52;100138.09;;;21.15;37.23
63088;BME280;49173;43.164;27.786;2023-04-30T10:16:42;100146.28;;;21.32;38.14
63088;BME280;49173;43.164;27.786;2023-04-30T10:19:13;100136.97;;;21.43;38.47
63088;BME280;49173;43.164;27.786;2023-04-30T10:21:42;100141.09;;;21.47;37.89
63088;BME280;49173;43.164;27.786;2023-04-30T10:24:15;100133.66;;;21.57;38.49
63088;BME280;49173;43.164;27.786;2023-04-30T10:26:46;100132.00;;;21.64;37.01
63088;BME280;49173;43.164;27.786;2023-04-30T10:29:13;100134.66;;;21.56;34.92
63088;BME280;49173;43.164;27.786;2023-04-30T10:31:50;100136.41;;;21.57;37.46
63088;BME280;49173;43.164;27.786;2023-04-30T10:37:12;100135.06;;;21.96;37.37
63088;BME280;49173;43.164;27.786;2023-04-30T10:39:40;100133.06;;;22.06;36.29
63088;BME280;49173;43.164;27.786;2023-04-30T10:42:09;100139.09;;;22.09;34.08
63088;BME280;49173;43.164;27.786;2023-04-30T10:44:36;100133.63;;;22.09;35.00
63088;BME280;49173;43.164;27.786;2023-04-30T10:47:04;100129.22;;;22.16;33.90
63088;BME280;49173;43.164;27.786;2023-04-30T10:49:31;100133.84;;;22.24;34.60
63088;BME280;49173;43.164;27.786;2023-04-30T10:52:01;100135.91;;;22.22;32.72
63088;BME280;49173;43.164;27.786;2023-04-30T10:54:34;100138.19;;;22.35;34.88
63088;BME280;49173;43.164;27.786;2023-04-30T10:57:11;100126.06;;;22.45;34.14
63088;BME280;49173;43.164;27.786;2023-04-30T10:59:41;100126.25;;;22.52;32.41
63088;BME280;49173;43.164;27.786;2023-04-30T11:02:10;100125.56;;;22.42;32.23
63088;BME280;49173;43.164;27.786;2023-04-30T11:07:57;100130.69;;;22.45;32.69
63088;BME280;49173;43.164;27.786;2023-04-30T11:10:25;100118.88;;;22.44;33.63
63088;BME280;49173;43.164;27.786;2023-04-30T11:12:53;100126.28;;;22.60;33.93
63088;BME280;49173;43.164;27.786;2023-04-30T11:15:24;100120.50;;;22.71;33.17
63088;BME280;49173;43.164;27.786;2023-04-30T11:17:55;100119.81;;;22.69;33.16
63088;BME280;49173;43.164;27.786;2023-04-30T11:20:24;100119.81;;;22.69;32.57
63088;BME280;49173;43.164;27.786;2023-04-30T11:23:10;100118.06;;;22.68;33.59
63088;BME280;49173;43.164;27.786;2023-04-30T11:25:47;100110.59;;;22.79;32.76
63088;BME280;49173;43.164;27.786;2023-04-30T11:28:24;100119.50;;;22.89;31.50
63088;BME280;49173;43.164;27.786;2023-04-30T11:30:58;100121.91;;;22.92;32.03
63088;BME280;49173;43.164;27.786;2023-04-30T11:33:31;100105.50;;;23.00;31.92
63088;BME280;49173;43.164;27.786;2023-04-30T11:35:59;100115.59;;;23.16;32.99
63088;BME280;49173;43.164;27.786;2023-04-30T11:38:30;100104.47;;;23.34;32.81
63088;BME280;49173;43.164;27.786;2023-04-30T11:41:02;100103.25;;;23.28;29.91
63088;BME280;49173;43.164;27.786;2023-04-30T11:43:32;100090.75;;;23.34;31.85
63088;BME280;49173;43.164;27.786;2023-04-30T11:46:10;100102.22;;;23.29;31.91
63088;BME280;49173;43.164;27.786;2023-04-30T11:48:40;100093.50;;;23.25;32.42
63088;BME280;49173;43.164;27.786;2023-04-30T11:51:22;100098.31;;;22.91;30.21
63088;BME280;49173;43.164;27.786;2023-04-30T11:53:50;100097.78;;;23.03;32.25
63088;BME280;49173;43.164;27.786;2023-04-30T11:56:23;100098.97;;;23.25;31.57
63088;BME280;49173;43.164;27.786;2023-04-30T11:58:51;100103.09;;;23.21;28.38
63088;BME280;49173;43.164;27.786;2023-04-30T12:01:18;100102.41;;;23.19;30.42
63088;BME280;49173;43.164;27.786;2023-04-30T12:03:49;100103.28;;;23.12;28.90
63088;BME280;49173;43.164;27.786;2023-04-30T12:06:25;100101.69;;;22.77;30.12
63088;BME280;49173;43.164;27.786;2023-04-30T12:08:56;100093.44;;;22.52;30.19
63088;BME280;49173;43.164;27.786;2023-04-30T12:11:27;100092.41;;;22.61;31.68
63088;BME280;49173;43.164;27.786;2023-04-30T12:14:05;100089.69;;;22.61;30.22
63088;BME280;49173;43.164;27.786;2023-04-30T12:16:51;100096.16;;;22.52;31.52
63088;BME280;49173;43.164;27.786;2023-04-30T12:19:20;100087.28;;;22.42;29.77
63088;BME280;49173;43.164;27.786;2023-04-30T12:21:52;100094.94;;;22.38;31.72
63088;BME280;49173;43.164;27.786;2023-04-30T12:24:20;100094.28;;;22.44;32.10
63088;BME280;49173;43.164;27.786;2023-04-30T12:26:47;100085.56;;;22.49;31.33
63088;BME280;49173;43.164;27.786;2023-04-30T12:29:16;100099.25;;;22.57;31.66
63088;BME280;49173;43.164;27.786;2023-04-30T12:31:45;100096.00;;;22.62;32.07
63088;BME280;49173;43.164;27.786;2023-04-30T12:34:15;100082.50;;;22.68;31.03
63088;BME280;49173;43.164;27.786;2023-04-30T12:36:43;100084.56;;;22.74;32.08
63088;BME280;49173;43.164;27.786;2023-04-30T12:39:13;100078.41;;;22.81;31.89
63088;BME280;49173;43.164;27.786;2023-04-30T12:41:41;100077.38;;;22.82;29.40
63088;BME280;49173;43.164;27.786;2023-04-30T12:44:19;100077.75;;;22.70;31.12
63088;BME280;49173;43.164;27.786;2023-04-30T12:46:51;100077.06;;;22.77;30.16
63088;BME280;49173;43.164;27.786;2023-04-30T12:49:28;100073.81;;;22.73;30.08
63088;BME280;49173;43.164;27.786;2023-04-30T12:52:21;100070.03;;;22.66;30.90
63088;BME280;49173;43.164;27.786;2023-04-30T12:54:51;100076.88;;;22.70;30.94
63088;BME280;49173;43.164;27.786;2023-04-30T12:57:23;100071.25;;;22.63;31.18
63088;BME280;49173;43.164;27.786;2023-04-30T12:59:56;100075.69;;;22.81;30.70
63088;BME280;49173;43.164;27.786;2023-04-30T13:02:32;100069.34;;;22.80;29.46
63088;BME280;49173;43.164;27.786;2023-04-30T13:04:58;100065.59;;;22.81;31.33
63088;BME280;49173;43.164;27.786;2023-04-30T13:07:36;100066.44;;;22.82;31.51
63088;BME280;49173;43.164;27.786;2023-04-30T13:10:03;100060.00;;;22.91;30.93